Time;durP1;ratioP1;P1;durP2;ratioP2;P2;SDS_P1;SDS_P2;PMS_P1;PMS_P2;Temp;Humidity;BMP_temperature;BMP_pressure;BME280_temperature;BME280_humidity;BME280_pressure;Samples;Min_cycle;Max_cycle;Signal;HPM_P1;HPM_P2
2022/02/20 00:00:19;;;;;;;7.43;1.70;;;;;;;3.78;100.00;101112.97;5059903;28;20493;-69
2022/02/20 00:02:48;;;;;;;4.63;1.77;;;;;;;3.74;100.00;101098.88;5057307;28;20076;-70
2022/02/20 00:05:16;;;;;;;5.85;1.70;;;;;;;3.76;100.00;101102.41;5063086;28;20070;-69
2022/02/20 00:07:44;;;;;;;3.92;1.40;;;;;;;3.76;100.00;101097.13;5060996;28;20533;-70
2022/02/20 00:10:14;;;;;;;6.30;1.65;;;;;;;3.78;100.00;101108.59;5093216;27;20102;-70
2022/02/20 00:12:42;;;;;;;5.25;1.33;;;;;;;3.84;100.00;101124.41;5061044;28;20505;-70
2022/02/20 00:15:11;;;;;;;6.15;2.03;;;;;;;3.84;100.00;101131.47;5058230;28;20367;-70
2022/02/20 00:17:39;;;;;;;7.40;1.70;;;;;;;3.88;100.00;101133.22;5058011;28;20061;-70
2022/02/20 00:20:10;;;;;;;9.93;1.42;;;;;;;3.91;100.00;101146.41;5091680;27;20169;-70
2022/02/20 00:22:40;;;;;;;5.53;1.63;;;;;;;3.89;100.00;101151.69;5061364;28;20512;-70
2022/02/20 00:25:09;;;;;;;3.03;1.40;;;;;;;3.89;100.00;101149.06;5060731;28;20052;-70
2022/02/20 00:27:39;;;;;;;3.85;1.00;;;;;;;3.88;100.00;101146.41;5061512;28;20131;-70
2022/02/20 00:30:08;;;;;;;9.52;1.60;;;;;;;3.88;100.00;101147.31;5061011;28;20139;-70
2022/02/20 00:32:36;;;;;;;4.25;2.00;;;;;;;3.93;100.00;101149.94;5061821;28;20098;-71
2022/02/20 00:35:04;;;;;;;4.28;1.10;;;;;;;3.90;100.00;101153.47;5062212;28;20059;-70
2022/02/20 00:37:32;;;;;;;2.22;0.90;;;;;;;3.90;100.00;101164.03;5059234;28;20056;-70
2022/02/20 00:40:02;;;;;;;6.80;1.27;;;;;;;3.91;100.00;101167.53;5058567;28;20545;-71
2022/02/20 00:42:31;;;;;;;3.03;0.98;;;;;;;3.86;100.00;101154.31;5058734;28;20048;-70
2022/02/20 00:45:00;;;;;;;3.75;1.15;;;;;;;3.91;100.00;101160.47;5058415;28;20084;-71
2022/02/20 00:47:29;;;;;;;1.70;1.00;;;;;;;3.89;100.00;101164.03;5059798;28;20116;-71
2022/02/20 00:49:57;;;;;;;1.73;0.77;;;;;;;3.91;100.00;101162.25;5091798;28;20260;-70
2022/02/20 00:52:25;;;;;;;1.85;1.00;;;;;;;3.91;100.00;101171.03;5057851;28;20060;-70
2022/02/20 00:54:53;;;;;;;4.28;1.25;;;;;;;3.89;100.00;101169.31;5060344;28;20171;-71
2022/02/20 00:57:21;;;;;;;2.50;0.98;;;;;;;3.90;100.00;101161.38;5057843;28;20048;-70
2022/02/20 00:59:49;;;;;;;2.85;1.00;;;;;;;3.92;100.00;101172.81;5058559;28;20147;-71
2022/02/20 01:02:18;;;;;;;2.65;1.30;;;;;;;3.92;100.00;101182.50;5061334;28;20507;-70
2022/02/20 01:04:46;;;;;;;5.88;1.42;;;;;;;3.91;100.00;101165.75;5052086;28;20163;-71
2022/02/20 01:07:14;;;;;;;5.47;1.45;;;;;;;3.93;100.00;101171.94;5060958;28;20488;-71
2022/02/20 01:09:42;;;;;;;3.97;1.02;;;;;;;4.03;100.00;101166.66;5058784;28;20062;-75
2022/02/20 01:12:10;;;;;;;4.57;1.35;;;;;;;4.00;100.00;101164.00;5060723;28;20072;-76
2022/02/20 01:14:38;;;;;;;4.55;1.30;;;;;;;4.06;100.00;101164.03;5058741;28;20174;-70
2022/02/20 01:17:07;;;;;;;8.65;1.80;;;;;;;4.05;100.00;101173.72;5059585;28;20056;-71
2022/02/20 01:20:00;;;;;;;4.63;1.73;;;;;;;4.05;100.00;101164.91;5060137;28;20586;-71
2022/02/20 01:22:29;;;;;;;9.07;1.67;;;;;;;4.05;100.00;101179.00;5059935;28;20055;-70
2022/02/20 01:24:57;;;;;;;2.72;1.20;;;;;;;4.07;100.00;101186.91;5059461;28;20094;-71
2022/02/20 01:27:26;;;;;;;3.85;1.25;;;;;;;4.11;100.00;101178.97;5055907;28;20049;-70
2022/02/20 01:29:54;;;;;;;4.10;1.20;;;;;;;4.08;100.00;101173.69;5058550;28;20056;-75
2022/02/20 01:32:22;;;;;;;2.80;1.20;;;;;;;4.06;100.00;101186.03;5059591;28;20098;-75
2022/02/20 01:34:49;;;;;;;1.83;1.10;;;;;;;4.06;100.00;101182.50;5060322;28;20063;-76
2022/02/20 01:37:19;;;;;;;3.75;1.15;;;;;;;4.07;100.00;101177.22;5061781;28;20578;-76
2022/02/20 01:39:47;;;;;;;4.40;1.20;;;;;;;4.05;100.00;101170.19;5056178;28;20552;-76
2022/02/20 01:42:14;;;;;;;7.57;1.20;;;;;;;4.07;100.00;101157.84;5062883;28;20152;-75
2022/02/20 01:44:42;;;;;;;4.47;1.30;;;;;;;4.03;100.00;101161.38;5059767;28;20064;-75
2022/02/20 01:47:15;;;;;;;2.80;1.77;;;;;;;4.00;100.00;101157.00;5058989;28;20069;-76
2022/02/20 01:49:43;;;;;;;3.25;1.33;;;;;;;3.97;100.00;101148.16;5059306;28;20116;-76
2022/02/20 01:52:12;;;;;;;1.50;1.13;;;;;;;3.92;100.00;101156.09;5057056;28;20055;-75
2022/02/20 01:54:41;;;;;;;4.82;1.17;;;;;;;3.87;100.00;101171.94;5058294;28;20569;-76
2022/02/20 01:57:09;;;;;;;1.75;0.80;;;;;;;3.81;100.00;101169.28;5061448;28;20052;-76
2022/02/20 01:59:38;;;;;;;7.05;1.48;;;;;;;3.66;100.00;101169.25;5062385;28;20052;-76
2022/02/20 02:02:06;;;;;;;3.95;1.10;;;;;;;3.60;100.00;101167.50;5060995;28;20208;-76
2022/02/20 02:04:34;;;;;;;1.13;1.05;;;;;;;3.53;100.00;101168.38;5059255;28;20036;-76
2022/02/20 02:07:02;;;;;;;2.40;1.17;;;;;;;3.53;100.00;101163.97;5057377;28;20583;-76
2022/02/20 02:09:30;;;;;;;12.45;1.42;;;;;;;3.44;100.00;101165.69;5058522;28;20209;-76
2022/02/20 02:11:59;;;;;;;3.65;1.80;;;;;;;3.45;100.00;101163.06;5061084;28;20078;-76
2022/02/20 02:14:27;;;;;;;2.28;1.30;;;;;;;3.44;100.00;101157.78;5059105;28;20051;-71
2022/02/20 02:16:58;;;;;;;2.60;1.13;;;;;;;3.37;100.00;101151.59;5059623;28;20102;-72
2022/02/20 02:19:26;;;;;;;5.88;1.77;;;;;;;3.38;100.00;101158.66;5057304;28;20125;-75
2022/02/20 02:21:54;;;;;;;3.55;1.70;;;;;;;3.31;100.00;101156.88;5057369;28;20040;-75
2022/02/20 02:24:23;;;;;;;3.53;1.77;;;;;;;3.29;100.00;101158.66;5057037;28;20059;-76
2022/02/20 02:26:51;;;;;;;5.13;1.38;;;;;;;3.25;100.00;101168.31;5058973;28;20599;-76
2022/02/20 02:29:19;;;;;;;5.05;1.67;;;;;;;3.30;100.00;101149.84;5057833;28;20115;-76
2022/02/20 02:31:47;;;;;;;6.93;1.58;;;;;;;3.28;100.00;101148.97;5060259;28;20040;-76
2022/02/20 02:34:14;;;;;;;5.15;2.20;;;;;;;3.26;100.00;101146.31;5056367;28;20772;-76
2022/02/20 02:36:49;;;;;;;3.95;1.98;;;;;;;3.24;100.00;101131.38;5060770;28;20087;-76
2022/02/20 02:39:17;;;;;;;5.90;2.05;;;;;;;3.21;100.00;101124.31;5058615;28;20345;-77
2022/02/20 02:41:46;;;;;;;3.15;2.20;;;;;;;3.18;100.00;101117.28;5057811;28;20058;-77
2022/02/20 02:44:14;;;;;;;4.72;2.60;;;;;;;3.17;100.00;101122.56;5055700;28;20044;-77
2022/02/20 02:46:43;;;;;;;5.80;2.40;;;;;;;3.14;100.00;101128.69;5062977;28;20060;-77
2022/02/20 02:49:10;;;;;;;7.20;2.28;;;;;;;3.12;100.00;101119.03;5061454;28;20554;-74
2022/02/20 02:51:38;;;;;;;7.90;2.65;;;;;;;3.15;100.00;101121.66;5060715;28;20052;-75
2022/02/20 02:54:07;;;;;;;7.35;2.35;;;;;;;3.22;100.00;101125.19;5058220;28;20056;-77
2022/02/20 02:56:35;;;;;;;5.45;2.55;;;;;;;3.27;100.00;101129.63;5060959;28;20109;-77
2022/02/20 02:59:06;;;;;;;9.50;2.50;;;;;;;3.26;100.00;101135.75;5059406;28;20056;-76
2022/02/20 03:01:34;;;;;;;6.00;2.10;;;;;;;3.24;100.00;101140.16;5060637;28;20136;-76
2022/02/20 03:04:02;;;;;;;8.55;3.33;;;;;;;3.30;100.00;101126.09;5060583;28;20154;-76
2022/02/20 03:06:30;;;;;;;7.15;2.88;;;;;;;3.29;100.00;101122.59;5061135;28;20153;-76
2022/02/20 03:08:58;;;;;;;5.93;2.58;;;;;;;3.31;100.00;101119.97;5062364;28;20510;-77
2022/02/20 03:11:30;;;;;;;12.30;4.00;;;;;;;3.30;100.00;101105.00;5063894;28;20051;-78
2022/02/20 03:13:58;;;;;;;9.57;3.08;;;;;;;3.30;100.00;101094.44;5062393;28;20074;-75
2022/02/20 03:16:27;;;;;;;6.68;3.42;;;;;;;3.28;100.00;101089.16;5064599;28;20281;-75
2022/02/20 03:18:55;;;;;;;11.00;4.07;;;;;;;3.32;100.00;101069.84;5061157;28;20505;-70
2022/02/20 03:21:23;;;;;;;10.18;5.40;;;;;;;3.35;100.00;101075.13;5058178;28;20133;-75
2022/02/20 03:23:51;;;;;;;12.18;5.53;;;;;;;3.37;100.00;101069.81;5058955;28;20042;-75
2022/02/20 03:26:19;;;;;;;16.88;6.40;;;;;;;3.34;100.00;101068.09;5061555;28;20048;-70
2022/02/20 03:28:47;;;;;;;14.98;7.07;;;;;;;3.34;100.00;101064.56;5059760;28;20052;-75
2022/02/20 03:31:16;;;;;;;10.85;6.03;;;;;;;3.39;100.00;101080.38;5062787;28;20071;-75
2022/02/20 03:33:46;;;;;;;12.02;6.70;;;;;;;3.40;100.00;101063.69;5062172;28;20124;-75
2022/02/20 03:36:15;;;;;;;13.10;6.32;;;;;;;3.36;100.00;101068.09;5060296;28;20048;-70
2022/02/20 03:38:43;;;;;;;13.32;6.60;;;;;;;3.41;100.00;101063.69;5062017;28;20143;-70
2022/02/20 03:41:11;;;;;;;15.65;6.65;;;;;;;3.43;100.00;101063.69;5060661;28;20110;-70
2022/02/20 03:43:39;;;;;;;10.85;6.03;;;;;;;3.39;100.00;101054.91;5056754;28;20048;-70
2022/02/20 03:46:07;;;;;;;14.68;6.45;;;;;;;3.39;100.00;101047.00;5061560;28;20056;-70
2022/02/20 03:48:35;;;;;;;12.93;6.43;;;;;;;3.37;100.00;101043.44;5062069;28;20151;-70
2022/02/20 03:51:05;;;;;;;15.02;6.50;;;;;;;3.36;100.00;101044.34;5059081;28;20139;-71
2022/02/20 03:53:33;;;;;;;11.20;5.72;;;;;;;3.38;100.00;101042.59;5056575;28;20512;-70
2022/02/20 03:56:01;;;;;;;16.10;6.82;;;;;;;3.38;100.00;101026.75;5059825;28;20053;-71
2022/02/20 03:58:29;;;;;;;16.13;6.45;;;;;;;3.40;100.00;101029.41;5062365;28;20048;-70
2022/02/20 04:00:57;;;;;;;11.93;5.55;;;;;;;3.44;100.00;101020.59;5060051;28;20089;-75
2022/02/20 04:03:25;;;;;;;14.93;6.45;;;;;;;3.41;100.00;101026.75;5059917;28;20130;-70
2022/02/20 04:05:53;;;;;;;15.85;6.55;;;;;;;3.40;100.00;101018.84;5063540;28;20080;-70
2022/02/20 04:08:22;;;;;;;13.32;6.85;;;;;;;3.40;100.00;101001.25;5060286;28;20114;-70
2022/02/20 04:10:51;;;;;;;17.65;6.63;;;;;;;3.47;100.00;100995.09;5060683;28;20075;-69
2022/02/20 04:13:19;;;;;;;16.33;6.85;;;;;;;3.46;100.00;100987.19;5060885;28;20096;-70
2022/02/20 04:15:47;;;;;;;22.95;8.13;;;;;;;3.43;100.00;100985.44;5060168;28;20086;-74
2022/02/20 04:18:14;;;;;;;16.15;6.80;;;;;;;3.44;100.00;100970.47;5060653;28;20076;-76
2022/02/20 04:20:42;;;;;;;17.27;7.75;;;;;;;3.47;100.00;100966.06;5062725;28;20139;-77
2022/02/20 04:23:10;;;;;;;16.67;6.32;;;;;;;3.46;100.00;100959.03;5060624;28;20282;-70
2022/02/20 04:25:40;;;;;;;14.07;6.72;;;;;;;3.47;100.00;100944.97;5058683;28;20139;-70
2022/02/20 04:28:07;;;;;;;15.10;7.00;;;;;;;3.52;100.00;100947.59;5058453;28;20052;-70
2022/02/20 04:30:36;;;;;;;16.65;7.60;;;;;;;3.54;100.00;100932.63;5057587;28;20056;-70
2022/02/20 04:33:03;;;;;;;15.38;6.65;;;;;;;3.55;100.00;100929.13;5057545;28;20052;-71
2022/02/20 04:35:32;;;;;;;24.40;8.88;;;;;;;3.59;100.00;100922.94;5059729;28;20139;-69
2022/02/20 04:38:00;;;;;;;21.20;8.15;;;;;;;3.61;100.00;100910.66;5059265;28;20076;-69
2022/02/20 04:40:28;;;;;;;18.75;8.23;;;;;;;3.66;100.00;100919.44;5058459;28;20068;-70
2022/02/20 04:42:57;;;;;;;24.17;8.25;;;;;;;3.70;100.00;100915.03;5059585;28;20163;-69
2022/02/20 04:45:25;;;;;;;21.23;8.10;;;;;;;3.77;100.00;100900.94;5059433;28;20295;-70
2022/02/20 04:47:53;;;;;;;19.98;7.45;;;;;;;3.84;100.00;100894.72;5059201;28;20045;-70
2022/02/20 04:50:21;;;;;;;20.27;7.85;;;;;;;3.84;100.00;100884.19;5057605;28;20052;-76
2022/02/20 04:52:49;;;;;;;21.30;8.30;;;;;;;3.86;100.00;100863.91;5055635;28;20139;-76
2022/02/20 04:55:17;;;;;;;19.30;8.27;;;;;;;3.91;100.00;100845.44;5059884;28;20077;-76
2022/02/20 04:57:45;;;;;;;22.67;8.02;;;;;;;3.90;100.00;100843.69;5058720;28;20045;-77
2022/02/20 05:00:16;;;;;;;21.17;7.20;;;;;;;3.98;100.00;100835.72;5058931;28;20048;-71
2022/02/20 05:02:44;;;;;;;20.85;8.25;;;;;;;4.06;100.00;100831.28;5059532;28;20124;-71
2022/02/20 05:05:16;;;;;;;25.45;8.65;;;;;;;4.06;100.00;100815.44;5057991;28;20155;-71
2022/02/20 05:07:44;;;;;;;21.02;8.73;;;;;;;4.11;100.00;100816.28;5054475;28;20055;-71
2022/02/20 05:10:12;;;;;;;21.67;8.20;;;;;;;4.15;100.00;100798.66;5057779;28;20045;-71
2022/02/20 05:12:41;;;;;;;23.48;8.20;;;;;;;4.19;100.00;100795.09;5060285;28;21850;-72
2022/02/20 05:15:10;;;;;;;18.33;8.38;;;;;;;4.21;100.00;100791.56;5059900;28;20132;-71
2022/02/20 05:17:40;;;;;;;24.90;9.13;;;;;;;4.27;100.00;100778.34;5059906;28;20129;-72
2022/02/20 05:20:10;;;;;;;18.42;8.43;;;;;;;4.35;100.00;100766.84;5058459;28;20068;-71
2022/02/20 05:22:38;;;;;;;25.17;9.10;;;;;;;4.32;100.00;100759.78;5059831;28;20128;-72
2022/02/20 05:25:07;;;;;;;26.20;10.32;;;;;;;4.37;100.00;100765.91;5057862;28;21036;-80
2022/02/20 05:27:59;;;;;;;25.38;8.93;;;;;;;4.41;100.00;100769.41;5060284;28;20109;-77
2022/02/20 05:30:27;;;;;;;26.38;9.77;;;;;;;4.47;100.00;100770.25;5058113;28;20133;-78
2022/02/20 05:32:56;;;;;;;23.45;9.15;;;;;;;4.53;100.00;100766.69;5056394;28;20066;-79
2022/02/20 05:35:24;;;;;;;23.27;8.68;;;;;;;4.56;100.00;100764.00;5062921;28;20095;-80
2022/02/20 05:37:53;;;;;;;22.50;8.57;;;;;;;4.67;100.00;100756.84;5058222;28;20090;-80
2022/02/20 05:40:33;;;;;;;20.60;10.63;;;;;;;4.82;100.00;100754.97;5061306;28;20056;-73
2022/02/20 05:43:11;;;;;;;18.00;8.95;;;;;;;5.06;100.00;100751.19;5070054;28;20117;-73
2022/02/20 05:45:46;;;;;;;24.30;9.57;;;;;;;5.16;100.00;100757.25;5053586;28;20060;-72
2022/02/20 05:48:19;;;;;;;19.85;8.88;;;;;;;5.22;100.00;100744.81;5059871;28;20040;-72
2022/02/20 05:50:49;;;;;;;21.45;7.75;;;;;;;5.41;100.00;100741.97;5059061;28;20130;-72
2022/02/20 05:53:19;;;;;;;25.30;10.10;;;;;;;5.48;100.00;100743.63;5050853;28;20123;-71
2022/02/20 05:55:46;;;;;;;22.05;10.32;;;;;;;5.54;100.00;100738.28;5061404;28;20158;-78
2022/02/20 05:58:16;;;;;;;25.40;9.48;;;;;;;5.60;100.00;100719.69;5059512;28;20289;-78
2022/02/20 06:00:43;;;;;;;22.40;9.38;;;;;;;5.74;100.00;100730.06;5059282;28;20243;-77
2022/02/20 06:03:12;;;;;;;23.83;9.48;;;;;;;5.97;100.00;100734.19;5056768;28;20482;-78
2022/02/20 06:05:41;;;;;;;22.08;8.10;;;;;;;6.08;100.00;100737.56;5058497;28;20048;-76
2022/02/20 06:08:09;;;;;;;27.67;9.02;;;;;;;6.15;100.00;100725.97;5058895;28;20079;-70
2022/02/20 06:10:38;;;;;;;23.20;9.35;;;;;;;6.20;100.00;100715.31;5059115;28;20072;-70
2022/02/20 06:13:07;;;;;;;30.05;10.50;;;;;;;6.23;100.00;100706.41;5057058;28;20049;-70
2022/02/20 06:15:37;;;;;;;24.13;9.05;;;;;;;6.43;100.00;100706.97;5058398;28;20052;-70
2022/02/20 06:18:06;;;;;;;24.05;8.63;;;;;;;6.42;100.00;100699.03;5058288;28;20141;-70
2022/02/20 06:20:34;;;;;;;22.92;8.18;;;;;;;6.47;100.00;100702.47;5060135;28;20048;-77
2022/02/20 06:23:03;;;;;;;22.92;8.10;;;;;;;6.55;100.00;100697.91;5062718;28;20108;-77
2022/02/20 06:25:31;;;;;;;30.02;8.27;;;;;;;6.65;100.00;100704.81;5062032;28;20125;-77
2022/02/20 06:27:58;;;;;;;26.83;7.85;;;;;;;6.78;100.00;100701.97;5062139;28;20052;-77
2022/02/20 06:30:26;;;;;;;20.33;7.50;;;;;;;6.81;100.00;100700.13;5062757;28;20048;-77
2022/02/20 06:32:54;;;;;;;24.35;8.50;;;;;;;6.85;100.00;100692.97;5062539;28;20080;-70
2022/02/20 06:35:23;;;;;;;27.15;9.18;;;;;;;6.90;100.00;100691.97;5061062;28;20159;-71
2022/02/20 06:37:51;;;;;;;22.42;8.40;;;;;;;7.03;100.00;100697.94;5061664;28;20560;-70
2022/02/20 06:40:26;;;;;;;30.17;9.88;;;;;;;7.11;100.00;100687.16;5064563;28;20185;-70
2022/02/20 06:42:54;;;;;;;28.00;8.45;;;;;;;7.18;100.00;100701.16;5065012;28;20098;-70
2022/02/20 06:45:23;;;;;;;29.33;7.85;;;;;;;7.29;100.00;100693.88;5061170;28;20044;-70
2022/02/20 06:47:52;;;;;;;37.92;6.68;;;;;;;7.43;100.00;100680.28;5062633;28;20135;-70
2022/02/20 06:50:21;;;;;;;25.35;6.47;;;;;;;7.45;100.00;100689.09;5062330;28;20044;-71
2022/02/20 06:52:49;;;;;;;30.65;7.25;;;;;;;7.53;100.00;100691.59;5059435;28;20060;-77
2022/02/20 06:55:17;;;;;;;27.13;6.35;;;;;;;7.53;100.00;100683.63;5062706;28;20453;-77
2022/02/20 06:57:46;;;;;;;33.72;6.38;;;;;;;7.58;100.00;100684.41;5066371;28;20488;-77
2022/02/20 07:00:16;;;;;;;31.20;5.90;;;;;;;7.74;100.00;100685.78;5061048;28;20052;-77
2022/02/20 07:02:45;;;;;;;28.55;6.00;;;;;;;7.79;100.00;100667.97;5063520;28;20158;-76
2022/02/20 07:05:12;;;;;;;31.55;7.30;;;;;;;7.89;100.00;100665.09;5063475;28;20135;-77
2022/02/20 07:07:41;;;;;;;34.60;6.18;;;;;;;7.96;100.00;100648.97;5062763;28;20079;-76
2022/02/20 07:10:14;;;;;;;25.52;5.20;;;;;;;7.99;100.00;100640.06;5063212;28;20072;-76
2022/02/20 07:13:16;;;;;;;30.15;6.00;;;;;;;7.98;100.00;100647.13;5064088;28;20511;-76
2022/02/20 07:15:49;;;;;;;30.42;5.60;;;;;;;8.01;100.00;100646.22;5061914;28;20550;-76
2022/02/20 07:18:17;;;;;;;35.03;6.53;;;;;;;8.00;100.00;100645.34;5065940;28;20045;-78
2022/02/20 07:20:46;;;;;;;31.40;6.10;;;;;;;8.06;100.00;100664.72;5062058;28;20235;-76
2022/02/20 07:23:14;;;;;;;24.17;5.03;;;;;;;8.08;100.00;100650.44;5063656;28;20199;-76
2022/02/20 07:25:46;;;;;;;25.35;4.85;;;;;;;8.14;100.00;100646.75;5063670;28;20593;-77
2022/02/20 07:28:18;;;;;;;29.60;5.85;;;;;;;8.20;100.00;100647.47;5062614;28;20505;-78
2022/02/20 07:30:46;;;;;;;34.97;6.00;;;;;;;8.19;100.00;100645.75;5060003;28;20052;-77
2022/02/20 07:33:16;;;;;;;38.78;6.82;;;;;;;8.20;100.00;100630.66;5061682;28;20044;-77
2022/02/20 07:35:46;;;;;;;40.90;6.78;;;;;;;8.21;100.00;100613.81;5061023;28;20056;-77
2022/02/20 07:38:14;;;;;;;29.52;6.93;;;;;;;8.20;100.00;100618.25;5061607;28;20047;-76
2022/02/20 07:40:45;;;;;;;34.13;6.50;;;;;;;8.26;100.00;100622.56;5060733;28;20053;-76
2022/02/20 07:43:20;;;;;;;41.63;7.15;;;;;;;8.26;100.00;100616.34;5062943;28;20058;-78
2022/02/20 07:45:52;;;;;;;32.90;7.78;;;;;;;8.29;100.00;100602.97;5057412;28;20509;-78
2022/02/20 07:48:21;;;;;;;32.00;8.35;;;;;;;8.31;100.00;100615.31;5062052;28;20090;-76
2022/02/20 07:50:49;;;;;;;35.50;8.13;;;;;;;8.30;100.00;100626.00;5061334;28;20087;-69
2022/02/20 07:53:17;;;;;;;40.78;8.57;;;;;;;8.31;100.00;100622.41;5059288;28;20044;-79
2022/02/20 07:55:46;;;;;;;47.65;8.70;;;;;;;8.31;100.00;100633.94;5061252;28;20287;-79
2022/02/20 07:58:17;;;;;;;36.75;7.50;;;;;;;8.36;100.00;100636.44;5060403;28;20233;-77
2022/02/20 08:00:45;;;;;;;43.28;7.63;;;;;;;8.43;100.00;100630.13;5063113;28;20087;-78
2022/02/20 08:03:13;;;;;;;42.63;8.27;;;;;;;8.46;100.00;100642.44;5059068;28;20074;-77
2022/02/20 08:08:25;;;;;;;41.13;8.70;;;;;;;8.49;100.00;100629.94;5059177;28;20506;-78
2022/02/20 08:10:56;;;;;;;45.17;9.57;;;;;;;8.49;100.00;100613.13;5061763;28;20094;-78
2022/02/20 08:13:26;;;;;;;48.92;8.10;;;;;;;8.52;100.00;100621.88;5062130;28;20056;-76
2022/02/20 08:15:57;;;;;;;36.63;8.68;;;;;;;8.52;100.00;100621.88;5061699;28;20057;-76
2022/02/20 08:18:30;;;;;;;42.30;8.23;;;;;;;8.53;100.00;100615.66;5061712;28;20064;-76
2022/02/20 08:20:57;;;;;;;35.38;6.88;;;;;;;8.55;100.00;100605.84;5060610;28;20048;-76
2022/02/20 08:23:46;;;;;;;40.55;7.53;;;;;;;8.56;100.00;100607.59;5059875;28;20950;-69
2022/02/20 08:26:18;;;;;;;42.97;8.38;;;;;;;8.65;100.00;100611.78;5059879;28;20098;-69
2022/02/20 08:28:51;;;;;;;32.95;7.03;;;;;;;8.62;100.00;100609.22;5058134;28;20041;-69
2022/02/20 08:31:20;;;;;;;30.88;6.90;;;;;;;8.68;100.00;100603.69;5059882;28;20037;-69
2022/02/20 08:33:49;;;;;;;36.35;7.63;;;;;;;8.74;100.00;100618.66;5060198;28;20052;-69
2022/02/20 08:36:20;;;;;;;42.13;8.95;;;;;;;8.73;100.00;100614.22;5058828;28;20045;-69
2022/02/20 08:38:50;;;;;;;40.03;7.20;;;;;;;8.74;100.00;100622.16;5057825;28;20049;-69
2022/02/20 08:41:23;;;;;;;38.75;7.75;;;;;;;8.72;100.00;100620.47;5058132;28;20105;-69
2022/02/20 08:43:56;;;;;;;47.88;9.07;;;;;;;8.75;100.00;100623.91;5052656;28;20114;-69
2022/02/20 08:46:28;;;;;;;33.47;6.55;;;;;;;8.74;100.00;100630.16;5060381;28;20093;-69
2022/02/20 08:48:56;;;;;;;39.10;9.23;;;;;;;8.78;100.00;100629.16;5038967;28;20055;-76
2022/02/20 08:51:24;;;;;;;49.95;8.65;;;;;;;8.82;100.00;100623.72;5063897;28;20057;-76
2022/02/20 08:53:52;;;;;;;37.58;7.32;;;;;;;8.88;100.00;100623.56;5059613;28;20068;-77
2022/02/20 08:56:20;;;;;;;35.83;7.85;;;;;;;8.89;100.00;100633.31;5062105;28;20082;-76
2022/02/20 08:58:48;;;;;;;43.80;8.85;;;;;;;8.86;100.00;100620.94;5057428;28;20479;-69
2022/02/20 09:01:20;;;;;;;40.42;7.28;;;;;;;8.87;100.00;100597.88;5056558;28;20314;-69
2022/02/20 09:03:48;;;;;;;48.42;9.15;;;;;;;8.89;100.00;100617.34;5058401;28;20135;-69
2022/02/20 09:06:15;;;;;;;35.28;7.05;;;;;;;8.88;100.00;100611.13;5053423;28;20078;-68
2022/02/20 09:08:43;;;;;;;42.50;9.32;;;;;;;8.89;100.00;100635.97;5061059;28;20106;-69
2022/02/20 09:11:11;;;;;;;42.17;8.00;;;;;;;8.95;100.00;100620.66;5060066;28;20059;-69
2022/02/20 09:13:39;;;;;;;28.85;6.50;;;;;;;9.03;100.00;100593.84;5061154;28;20067;-69
2022/02/20 09:16:07;;;;;;;50.67;9.25;;;;;;;9.02;100.00;100609.84;5061104;28;20048;-69
2022/02/20 09:18:36;;;;;;;48.83;8.77;;;;;;;9.02;100.00;100612.53;5060045;28;20477;-69
2022/02/20 09:21:04;;;;;;;40.83;7.47;;;;;;;9.00;100.00;100607.25;5057342;28;20044;-68
2022/02/20 09:23:32;;;;;;;42.80;6.55;;;;;;;9.03;100.00;100598.31;5058602;28;20052;-69
2022/02/20 09:26:00;;;;;;;33.25;7.65;;;;;;;9.05;100.00;100639.06;5060631;28;20049;-69
2022/02/20 09:28:28;;;;;;;43.25;8.73;;;;;;;9.08;100.00;100597.25;5058384;28;20052;-69
2022/02/20 09:30:57;;;;;;;46.05;8.15;;;;;;;9.09;100.00;100591.03;5056276;28;20055;-69
2022/02/20 09:33:25;;;;;;;35.45;8.05;;;;;;;9.10;100.00;100607.84;5056516;28;20109;-69
2022/02/20 09:35:54;;;;;;;41.55;7.13;;;;;;;9.11;100.00;100609.59;5061490;28;20049;-76
2022/02/20 09:38:23;;;;;;;42.78;8.45;;;;;;;9.09;100.00;100595.44;5058416;28;20162;-75
2022/02/20 09:40:52;;;;;;;47.17;9.90;;;;;;;9.09;100.00;100598.09;5056624;28;20045;-74
2022/02/20 09:43:20;;;;;;;37.28;7.35;;;;;;;9.08;100.00;100583.94;5058575;28;20552;-71
2022/02/20 09:45:51;;;;;;;42.38;8.60;;;;;;;9.10;100.00;100574.13;5056584;28;20066;-77
2022/02/20 09:48:20;;;;;;;49.25;9.60;;;;;;;9.09;100.00;100587.47;5058344;28;20460;-69
2022/02/20 09:50:47;;;;;;;42.10;9.30;;;;;;;9.10;100.00;100570.59;5055784;28;20270;-69
2022/02/20 09:53:17;;;;;;;47.50;9.40;;;;;;;9.10;100.00;100606.06;5055004;28;20549;-69
2022/02/20 09:55:46;;;;;;;38.92;8.00;;;;;;;9.10;100.00;100600.72;5059120;28;20481;-76
2022/02/20 09:58:18;;;;;;;39.25;6.40;;;;;;;9.06;100.00;100603.50;5057010;28;20559;-78
2022/02/20 10:00:53;;;;;;;38.70;9.45;;;;;;;9.03;100.00;100612.47;5057169;28;20091;-78
2022/02/20 10:03:32;;;;;;;49.25;8.18;;;;;;;8.96;100.00;100601.13;5059982;28;20235;-80
2022/02/20 10:06:04;;;;;;;38.28;6.88;;;;;;;8.93;100.00;100587.91;5062793;28;20112;-80
2022/02/20 10:08:42;;;;;;;52.42;9.52;;;;;;;8.95;100.00;100626.00;5057590;28;20060;-79
2022/02/20 10:11:19;;;;;;;48.45;9.57;;;;;;;8.87;100.00;100625.38;5060996;28;20237;-74
2022/02/20 10:13:52;;;;;;;42.53;10.25;;;;;;;8.89;100.00;100614.69;5054433;28;20471;-71
2022/02/20 10:16:28;;;;;;;34.83;8.55;;;;;;;8.85;100.00;100615.66;5057759;28;20068;-79
2022/02/20 10:19:00;;;;;;;42.08;8.68;;;;;;;8.80;100.00;100615.78;5055650;28;20353;-71
2022/02/20 10:21:35;;;;;;;48.50;9.40;;;;;;;8.83;100.00;100606.88;5058145;28;20056;-73
2022/02/20 10:24:24;;;;;;;41.20;8.35;;;;;;;8.75;100.00;100618.59;5054893;28;20269;-72
2022/02/20 10:26:56;;;;;;;42.63;8.70;;;;;;;8.72;100.00;100613.38;5056561;28;20059;-73
2022/02/20 10:29:25;;;;;;;45.88;10.27;;;;;;;8.74;100.00;100619.50;5089515;28;20055;-80
2022/02/20 10:32:00;;;;;;;36.00;7.22;;;;;;;8.75;100.00;100602.63;5062992;28;20094;-80
2022/02/20 10:34:30;;;;;;;36.90;7.63;;;;;;;8.76;100.00;100615.00;5061416;28;20064;-79
2022/02/20 10:37:00;;;;;;;44.28;8.32;;;;;;;8.78;100.00;100597.25;5056462;28;20147;-79
2022/02/20 10:39:34;;;;;;;49.63;9.27;;;;;;;8.79;100.00;100606.09;5058856;28;20048;-72
2022/02/20 10:42:13;;;;;;;50.20;9.23;;;;;;;8.78;100.00;100562.66;5090443;28;20048;-72
2022/02/20 10:44:55;;;;;;;38.95;9.63;;;;;;;8.82;100.00;100589.13;5056657;28;20052;-72
2022/02/20 10:47:28;;;;;;;45.50;9.90;;;;;;;8.82;100.00;100570.53;5064246;28;20127;-79
2022/02/20 10:50:15;;;;;;;42.58;9.73;;;;;;;8.81;100.00;100567.00;5060262;28;20051;-73
2022/02/20 10:52:48;;;;;;;43.83;8.38;;;;;;;8.82;100.00;100573.19;5055930;28;20080;-73
2022/02/20 10:55:21;;;;;;;39.28;9.10;;;;;;;8.84;100.00;100572.22;5056934;28;20195;-73
2022/02/20 10:57:53;;;;;;;50.22;10.00;;;;;;;8.82;100.00;100575.84;5054855;28;20290;-73
2022/02/20 11:00:22;;;;;;;40.58;7.47;;;;;;;8.80;100.00;100554.59;5058716;28;20080;-80
2022/02/20 11:03:07;;;;;;;43.65;8.85;;;;;;;8.80;100.00;100562.56;5059198;28;20091;-79
2022/02/20 11:05:36;;;;;;;35.30;8.23;;;;;;;8.80;100.00;100565.25;5061333;28;20053;-72
2022/02/20 11:08:06;;;;;;;38.83;7.95;;;;;;;8.83;100.00;100540.34;5060455;28;20400;-80
2022/02/20 11:10:37;;;;;;;39.55;8.45;;;;;;;8.87;100.00;100542.88;5063624;28;20045;-73
2022/02/20 11:13:08;;;;;;;42.28;7.85;;;;;;;8.87;100.00;100536.66;5063531;28;20136;-72
2022/02/20 11:15:39;;;;;;;44.03;9.40;;;;;;;8.92;100.00;100526.75;5064001;28;20346;-72
2022/02/20 11:18:09;;;;;;;42.33;9.40;;;;;;;8.89;100.00;100517.09;5064140;28;20045;-73
2022/02/20 11:20:41;;;;;;;47.38;8.85;;;;;;;8.90;100.00;100528.59;5063265;28;20049;-79
2022/02/20 11:23:11;;;;;;;31.58;7.50;;;;;;;8.96;100.00;100526.63;5064031;28;20348;-79
2022/02/20 11:25:44;;;;;;;45.85;10.27;;;;;;;8.98;100.00;100521.25;5063193;28;20421;-81
2022/02/20 11:28:17;;;;;;;43.88;8.48;;;;;;;8.99;100.00;100520.34;5061080;28;20041;-71
2022/02/20 11:30:56;;;;;;;48.28;8.73;;;;;;;8.98;100.00;100519.47;5057866;28;20105;-72
2022/02/20 11:33:28;;;;;;;34.90;7.68;;;;;;;8.99;100.00;100525.69;5059022;28;20067;-71